To NAV CANADA Home Page Login to a new session Search on AWWS site Feedback and Comments Disclaimer Vers la page française équivalente Tips FAQ What's new on the site To the Forecasts and Observations / NOTAM section To "File a Flight Plan" website Publications and other links Update of the User's profile FIC Telephone Numbers My Weather Data Folder Route Weather Data Regional Weather Data Local Weather Data To the Forecasts and Observations / NOTAM section
Request Generated 04/18/2015 at 07:11:54 UTC . Weather information available at that time is displayed.

METAR/TAF

FREDERICTON/FREDERICTON INTL/NB    (show WxCam)

METAR CYFC 180700Z AUTO 32007KT 9SM CLR 05/M01 A2985 RMK SLP109=
METAR CYFC 180600Z AUTO 32011KT 9SM FEW090 07/M00 A2982 RMK SLP099=
METAR CYFC 180500Z AUTO 27005KT 9SM BKN060 07/01 A2978 RMK SLP086=

TAF CYFC 180539Z 1806/1818 31006KT P6SM FEW060
BECMG 1816/1818 10005KT
RMK FCST BASED ON AUTO OBS. NXT FCST BY 181200Z=
Your time UTC time
Weather data provided by Environment Canada and NAV CANADA